Elation — 3FOC5 — position and weather

sailwx.info

Track history (hours):
 
Tides and Currents Weather Stations Pressure Air Temp Water Temp Dewpoint Dewpoint Depression Visibility Wind Speed Wind Dir Waves Ship Positions

Elation

Operator: Carnival Cruise Lines

Last reported at 2015-May-25 23:12 UTC. Time now 2015-May-28 01:35 UTC.
Position N 29°50' W 089°60'.

Type: Ship. MMSI: 355831000.

Date/timePositionNaut miles runAvg speedWind from/ knotsBaromVisibWave heightAir tempDewpointWater temp
2015-May-25 23:12N 29°50' W 089°60'8 4.3
2015-May-25 21:26N 29°56' W 090°04'0 0.0
2015-May-25 19:28N 29°56' W 090°04'0 0.0
2015-May-25 18:31N 29°56' W 090°04'0 0.0
2015-May-25 16:21N 29°56' W 090°04'0 0.0
2015-May-25 15:23N 29°56' W 090°04'0 0.0
2015-May-25 13:07N 29°56' W 090°04'2 1.0
2015-May-25 11:24N 29°57' W 090°02'29812.2
2015-May-24 11:00N 25°24' W 087°48'   110 / 271014.010.8 0.527.024.328.0
2015-May-21 22:23N 29°54' W 089°54'8 9.7
2015-May-21 21:31N 29°56' W 090°04'0 0.0
2015-May-21 19:28N 29°56' W 090°04'0 0.0
2015-May-21 12:27N 29°56' W 090°04'3 3.5
2015-May-21 11:33N 29°56' W 090°00'  
2015-May-16 21:24N 29°57' W 090°04'1 0.1
2015-May-16 13:33N 29°56' W 090°04'0 0.2
2015-May-16 11:31N 29°57' W 090°04'8 8.4
2015-May-16 10:32N 29°54' W 089°55'7 7.1
2015-May-16 09:33N 29°49' W 090°00'  
Track history (hours):
 
Tides and Currents Weather Stations Pressure Air Temp Water Temp Dewpoint Dewpoint Depression Visibility Wind Speed Wind Dir Waves Ship Positions

Elation

Operator: Carnival Cruise Lines

Last reported at 2015-May-25 23:12 UTC. Time now 2015-May-28 01:35 UTC.
Position N 29°50' W 089°60'.

Type: Ship. MMSI: 355831000.

Date/timePositionNaut miles runAvg speedWind from/ knotsBaromVisibWave heightAir tempDewpointWater temp
2015-May-25 23:12N 29°50' W 089°60'8 4.3
2015-May-25 21:26N 29°56' W 090°04'0 0.0
2015-May-25 19:28N 29°56' W 090°04'0 0.0
2015-May-25 18:31N 29°56' W 090°04'0 0.0
2015-May-25 16:21N 29°56' W 090°04'0 0.0
2015-May-25 15:23N 29°56' W 090°04'0 0.0
2015-May-25 13:07N 29°56' W 090°04'2 1.0
2015-May-25 11:24N 29°57' W 090°02'29812.2
2015-May-24 11:00N 25°24' W 087°48'   110 / 271014.010.8 0.527.024.328.0
2015-May-21 22:23N 29°54' W 089°54'8 9.7
2015-May-21 21:31N 29°56' W 090°04'0 0.0
2015-May-21 19:28N 29°56' W 090°04'0 0.0
2015-May-21 12:27N 29°56' W 090°04'3 3.5
2015-May-21 11:33N 29°56' W 090°00'  
2015-May-16 21:24N 29°57' W 090°04'1 0.1
2015-May-16 13:33N 29°56' W 090°04'0 0.2
2015-May-16 11:31N 29°57' W 090°04'8 8.4
2015-May-16 10:32N 29°54' W 089°55'7 7.1
2015-May-16 09:33N 29°49' W 090°00'  

Dump ship's entire track history